createdAt,value
2019-05-19T00:01:19.460Z,97462.74
2019-05-19T00:03:51.417Z,97465.63
2019-05-19T00:06:23.378Z,97467.06
2019-05-19T00:08:55.342Z,97461.25
2019-05-19T00:11:27.338Z,97466.56
2019-05-19T00:13:59.312Z,97469.23
2019-05-19T00:16:31.594Z,97474.79
2019-05-19T00:19:03.664Z,97468.22
2019-05-19T00:21:35.629Z,97467.92
2019-05-19T00:24:07.588Z,97467.66
2019-05-19T00:26:40.126Z,97470.61
2019-05-19T00:29:12.105Z,97471.20
2019-05-19T00:31:44.134Z,97467.03
2019-05-19T00:34:16.119Z,97469.14
2019-05-19T00:36:48.090Z,97465.38
2019-05-19T00:39:20.411Z,97461.47
2019-05-19T00:41:52.396Z,97460.12
2019-05-19T00:44:24.392Z,97466.57
2019-05-19T00:46:56.369Z,97467.41
2019-05-19T00:49:40.630Z,97456.80
2019-05-19T00:52:02.124Z,97469.91
2019-05-19T00:54:34.093Z,97463.64
2019-05-19T00:57:06.247Z,97465.70
2019-05-19T00:59:39.842Z,97461.44
2019-05-19T01:02:11.818Z,97457.95
2019-05-19T01:04:43.791Z,97463.83
2019-05-19T01:07:15.840Z,97459.57
2019-05-19T01:09:47.850Z,97460.52
2019-05-19T01:12:20.175Z,97459.76
2019-05-19T01:14:52.290Z,97455.50
2019-05-19T01:17:24.216Z,97452.84
2019-05-19T01:19:56.440Z,97449.92
2019-05-19T01:22:28.814Z,97450.59
2019-05-19T01:25:01.122Z,97455.63
2019-05-19T01:27:33.123Z,97456.68
2019-05-19T01:30:05.590Z,97448.34
2019-05-19T01:32:37.624Z,97444.84
2019-05-19T01:35:09.919Z,97444.45
2019-05-19T01:37:41.894Z,97446.66
2019-05-19T01:40:14.340Z,97440.97
2019-05-19T01:42:46.374Z,97445.52
2019-05-19T01:45:18.469Z,97453.88
2019-05-19T01:47:50.430Z,97453.34
2019-05-19T01:50:22.450Z,97459.98
2019-05-19T01:52:54.422Z,97461.09
2019-05-19T01:55:26.424Z,97458.92
2019-05-19T01:57:58.393Z,97460.64
2019-05-19T02:00:30.826Z,97459.33
2019-05-19T02:03:02.802Z,97455.07
2019-05-19T02:05:34.832Z,97455.35
2019-05-19T02:08:06.822Z,97453.58
2019-05-19T02:10:38.815Z,97453.30
2019-05-19T02:13:10.826Z,97451.03
2019-05-19T02:15:42.788Z,97452.64
2019-05-19T02:18:14.800Z,97453.30
2019-05-19T02:20:47.480Z,97451.87
2019-05-19T02:23:19.459Z,97449.53
2019-05-19T02:25:51.436Z,97451.59
2019-05-19T02:28:23.524Z,97455.95
2019-05-19T02:30:55.527Z,97451.80
2019-05-19T02:33:27.505Z,97451.89
2019-05-19T02:35:59.537Z,97455.50
2019-05-19T02:38:31.564Z,97451.59
2019-05-19T02:41:05.136Z,97456.51
2019-05-19T02:43:38.453Z,97453.58
2019-05-19T02:46:12.066Z,97454.23
2019-05-19T02:48:45.219Z,97450.08
2019-05-19T02:51:19.941Z,97450.85
2019-05-19T02:53:52.466Z,97447.92
2019-05-19T02:56:25.055Z,97455.66
2019-05-19T02:58:58.645Z,97447.81
2019-05-19T03:01:30.744Z,97452.91
2019-05-19T03:04:02.685Z,97451.69
2019-05-19T03:06:34.651Z,97451.23
2019-05-19T03:09:07.037Z,97451.12
2019-05-19T03:11:39.049Z,97451.52
2019-05-19T03:14:11.244Z,97458.71
2019-05-19T03:16:43.198Z,97459.73
2019-05-19T03:19:15.179Z,97466.95
2019-05-19T03:21:47.182Z,97461.81
2019-05-19T03:24:19.146Z,97460.44
2019-05-19T03:26:51.252Z,97457.86
2019-05-19T03:29:29.323Z,97457.06
2019-05-19T03:32:14.432Z,97456.94
2019-05-19T03:34:46.419Z,97456.80
2019-05-19T03:37:18.416Z,97465.27
2019-05-19T03:39:50.664Z,97469.23
2019-05-19T03:42:22.599Z,97468.30
2019-05-19T03:44:54.604Z,97469.58
2019-05-19T03:47:26.569Z,97462.25
2019-05-19T03:49:58.557Z,97463.23
2019-05-19T03:52:30.899Z,97464.60
2019-05-19T03:55:02.868Z,97467.81
2019-05-19T03:57:34.814Z,97465.89
2019-05-19T04:00:08.193Z,97467.83
2019-05-19T04:02:40.199Z,97465.09
2019-05-19T04:05:12.268Z,97459.02
2019-05-19T04:07:44.255Z,97455.50
2019-05-19T04:10:16.540Z,97452.02
2019-05-19T04:12:48.480Z,97458.32
2019-05-19T04:15:20.712Z,97451.84
2019-05-19T04:17:52.691Z,97451.80
2019-05-19T04:20:24.658Z,97446.29
2019-05-19T04:22:56.834Z,97447.74
2019-05-19T04:25:28.839Z,97449.18
2019-05-19T04:28:01.194Z,97447.95
2019-05-19T04:30:33.169Z,97437.37
2019-05-19T04:33:05.115Z,97442.34
2019-05-19T04:35:37.091Z,97447.78
2019-05-19T04:38:09.132Z,97443.50
2019-05-19T04:40:41.181Z,97449.10
2019-05-19T04:43:13.120Z,97447.84
2019-05-19T04:45:45.113Z,97447.31
2019-05-19T04:48:17.105Z,97444.92
2019-05-19T04:50:49.178Z,97440.43
2019-05-19T04:53:21.278Z,97441.67
2019-05-19T04:55:53.293Z,97437.75
2019-05-19T04:58:25.360Z,97439.28
2019-05-19T05:00:57.320Z,97438.92
2019-05-19T05:03:29.309Z,97430.16
2019-05-19T05:06:01.284Z,97427.66
2019-05-19T05:08:33.285Z,97423.81
2019-05-19T05:11:05.232Z,97412.64
2019-05-19T05:13:37.241Z,97407.64
2019-05-19T05:16:09.296Z,97403.38
2019-05-19T05:18:41.283Z,97406.36
2019-05-19T05:21:13.393Z,97395.75
2019-05-19T05:23:45.458Z,97386.36
2019-05-19T05:26:17.626Z,97387.95
2019-05-19T05:28:49.669Z,97386.25
2019-05-19T05:31:21.672Z,97385.33
2019-05-19T05:33:53.616Z,97378.86
2019-05-19T05:36:27.780Z,97382.88
2019-05-19T05:39:00.068Z,97380.69
2019-05-19T05:41:32.058Z,97385.42
2019-05-19T05:44:04.136Z,97387.84
2019-05-19T05:46:36.142Z,97384.20
2019-05-19T05:49:08.097Z,97383.27
2019-05-19T05:51:40.371Z,97386.48
2019-05-19T05:54:12.352Z,97385.48
2019-05-19T05:56:44.386Z,97379.58
2019-05-19T05:59:16.386Z,97380.26
2019-05-19T06:01:48.415Z,97380.84
2019-05-19T06:04:20.723Z,97373.29
2019-05-19T06:06:52.749Z,97377.03
2019-05-19T06:09:24.789Z,97386.48
2019-05-19T06:11:56.837Z,97377.95
2019-05-19T06:14:28.868Z,97376.44
2019-05-19T06:17:00.817Z,97379.92
2019-05-19T06:19:32.787Z,97371.71
2019-05-19T06:22:04.830Z,97377.55
2019-05-19T06:24:36.864Z,97370.75
2019-05-19T06:27:08.987Z,97375.06
2019-05-19T06:29:41.234Z,97371.06
2019-05-19T06:32:28.908Z,97366.31
2019-05-19T06:35:01.349Z,97364.45
2019-05-19T06:37:33.381Z,97362.95
2019-05-19T06:40:05.896Z,97368.55
2019-05-19T06:42:37.888Z,97362.75
2019-05-19T06:45:10.808Z,97363.75
2019-05-19T06:47:42.826Z,97355.69
2019-05-19T06:50:17.879Z,97356.79
2019-05-19T06:52:50.137Z,97361.31
2019-05-19T06:55:22.266Z,97354.67
2019-05-19T06:57:54.362Z,97352.61
2019-05-19T07:00:26.435Z,97345.45
2019-05-19T07:02:58.382Z,97342.08
2019-05-19T07:05:30.805Z,97340.33
2019-05-19T07:08:02.866Z,97337.59
2019-05-19T07:10:34.966Z,97335.92
2019-05-19T07:13:07.010Z,97335.62
2019-05-19T07:15:39.020Z,97333.54
2019-05-19T07:18:11.022Z,97334.02
2019-05-19T07:20:43.022Z,97333.23
2019-05-19T07:23:27.225Z,97331.23
2019-05-19T07:25:48.656Z,97327.73
2019-05-19T07:28:21.034Z,97318.91
2019-05-19T07:30:53.108Z,97311.88
2019-05-19T07:33:25.585Z,97310.58
2019-05-19T07:35:57.747Z,97300.91
2019-05-19T07:38:30.904Z,97309.09
2019-05-19T07:41:04.516Z,97312.20
2019-05-19T07:43:35.935Z,97303.90
2019-05-19T07:46:12.137Z,97302.90
2019-05-19T07:48:45.184Z,97294.47
2019-05-19T07:51:18.567Z,97291.19
2019-05-19T07:53:50.936Z,97282.91
2019-05-19T07:56:23.860Z,97278.91
2019-05-19T07:58:56.784Z,97281.75
2019-05-19T08:01:28.868Z,97281.44
2019-05-19T08:04:01.119Z,97272.64
2019-05-19T08:06:33.162Z,97271.39
2019-05-19T08:09:07.087Z,97274.79
2019-05-19T08:11:39.174Z,97261.53
2019-05-19T08:14:11.184Z,97249.30
2019-05-19T08:16:43.186Z,97245.58
2019-05-19T08:19:15.228Z,97255.37
2019-05-19T08:21:47.273Z,97248.86
2019-05-19T08:24:19.306Z,97246.33
2019-05-19T08:26:51.287Z,97243.80
2019-05-19T08:29:23.213Z,97248.98
2019-05-19T08:31:55.291Z,97257.20
2019-05-19T08:34:27.273Z,97245.24
2019-05-19T08:36:59.300Z,97249.06
2019-05-19T08:39:31.312Z,97249.44
2019-05-19T08:42:03.293Z,97250.22
2019-05-19T08:44:35.265Z,97246.47
2019-05-19T08:47:07.313Z,97247.92
2019-05-19T08:49:39.285Z,97248.97
2019-05-19T08:52:11.333Z,97245.48
2019-05-19T08:54:43.440Z,97246.53
2019-05-19T08:57:15.455Z,97243.20
2019-05-19T08:59:47.570Z,97246.66
2019-05-19T09:02:20.002Z,97232.09
2019-05-19T09:04:51.978Z,97234.51
2019-05-19T09:07:24.048Z,97234.97
2019-05-19T09:09:56.026Z,97240.69
2019-05-19T09:12:28.025Z,97250.08
2019-05-19T09:14:59.989Z,97240.36
2019-05-19T09:17:32.024Z,97235.73
2019-05-19T09:20:03.974Z,97232.90
2019-05-19T09:22:36.401Z,97223.81
2019-05-19T09:25:08.506Z,97225.61
2019-05-19T09:27:40.838Z,97223.28
2019-05-19T09:30:12.902Z,97233.75
2019-05-19T09:32:44.909Z,97239.04
2019-05-19T09:35:17.012Z,97239.70
2019-05-19T09:37:48.964Z,97229.06
2019-05-19T09:40:21.274Z,97226.70
2019-05-19T09:42:53.274Z,97230.12
2019-05-19T09:45:25.353Z,97221.03
2019-05-19T09:47:57.326Z,97217.17
2019-05-19T09:50:29.282Z,97216.79
2019-05-19T09:53:01.267Z,97202.98
2019-05-19T09:55:33.198Z,97209.39
2019-05-19T09:58:05.128Z,97247.34
2019-05-19T10:00:37.115Z,97247.72
2019-05-19T10:03:09.101Z,97253.02
2019-05-19T10:05:41.114Z,97247.94
2019-05-19T10:08:13.029Z,97250.69
2019-05-19T10:11:25.735Z,97249.14
2019-05-19T10:13:57.764Z,97231.77
2019-05-19T10:16:30.206Z,97238.09
2019-05-19T10:19:02.186Z,97225.39
2019-05-19T10:21:34.154Z,97212.75
2019-05-19T10:24:06.139Z,97205.13
2019-05-19T10:26:38.135Z,97207.13
2019-05-19T10:29:10.165Z,97196.55
2019-05-19T10:43:31.880Z,97217.14
2019-05-19T11:04:35.296Z,97227.30
2019-05-19T11:07:07.299Z,97224.75
2019-05-19T11:09:39.417Z,97223.84
2019-05-19T11:12:11.665Z,97222.03
2019-05-19T11:33:53.931Z,97219.41
2019-05-19T11:36:25.936Z,97235.11
2019-05-19T11:38:57.949Z,97220.67
2019-05-19T11:41:30.252Z,97228.55
2019-05-19T11:44:02.368Z,97220.98
2019-05-19T11:46:34.496Z,97225.39
2019-05-19T11:49:06.605Z,97235.88
2019-05-19T11:51:38.610Z,97221.88
2019-05-19T11:54:11.066Z,97215.16
2019-05-19T11:56:43.090Z,97207.85
2019-05-19T11:59:15.092Z,97201.14
2019-05-19T12:01:47.390Z,97201.76
2019-05-19T12:04:19.513Z,97192.70
2019-05-19T12:06:51.636Z,97185.95
2019-05-19T12:09:23.630Z,97198.11
2019-05-19T12:11:55.686Z,97181.42
2019-05-19T12:14:27.689Z,97166.06
2019-05-19T12:17:00.281Z,97168.73
2019-05-19T12:19:32.299Z,97162.30
2019-05-19T12:22:04.249Z,97164.43
2019-05-19T12:24:36.705Z,97150.67
2019-05-19T12:27:08.737Z,97144.52
2019-05-19T12:29:41.159Z,97150.80
2019-05-19T12:32:13.166Z,97155.34
2019-05-19T12:34:45.166Z,97163.74
2019-05-19T12:37:17.266Z,97174.45
2019-05-19T12:39:49.242Z,97182.66
2019-05-19T12:42:21.684Z,97174.89
2019-05-19T12:44:53.742Z,97186.14
2019-05-19T12:47:25.787Z,97189.70
2019-05-19T12:49:57.791Z,97193.91
2019-05-19T12:52:30.031Z,97186.51
2019-05-19T12:55:02.048Z,97199.80
2019-05-19T12:57:34.100Z,97200.73
2019-05-19T13:00:06.657Z,97189.39
2019-05-19T13:02:38.624Z,97193.14
2019-05-19T13:05:11.583Z,97204.00
2019-05-19T13:07:43.609Z,97217.23
2019-05-19T13:10:16.201Z,97232.64
2019-05-19T13:12:48.335Z,97218.78
2019-05-19T13:15:20.545Z,97206.48
2019-05-19T13:17:52.797Z,97206.89
2019-05-19T13:20:24.778Z,97235.86
2019-05-19T13:22:56.819Z,97263.69
2019-05-19T13:25:28.814Z,97354.90
2019-05-19T13:28:01.100Z,97332.63
2019-05-19T13:30:33.084Z,97374.78
2019-05-19T13:33:05.055Z,97386.72
2019-05-19T13:35:37.074Z,97465.27
2019-05-19T13:38:09.077Z,97404.13
2019-05-19T13:40:41.055Z,97390.84
2019-05-19T13:43:13.074Z,97396.05
2019-05-19T13:45:45.008Z,97410.20
2019-05-19T13:48:17.015Z,97414.50
2019-05-19T13:50:48.972Z,97422.27
2019-05-19T13:53:21.245Z,97415.30
2019-05-19T13:55:53.273Z,97404.56
2019-05-19T13:58:25.285Z,97412.80
2019-05-19T14:00:57.246Z,97395.31
2019-05-19T14:03:29.340Z,97386.50
2019-05-19T14:06:01.401Z,97374.59
2019-05-19T14:08:33.351Z,97370.53
2019-05-19T14:11:05.325Z,97373.28
2019-05-19T14:13:37.275Z,97340.59
2019-05-19T14:16:09.253Z,97325.69
2019-05-19T14:18:41.252Z,97326.56
2019-05-19T14:21:13.294Z,97326.55
2019-05-19T14:23:45.320Z,97323.08
2019-05-19T14:26:17.291Z,97312.00
2019-05-19T14:28:49.329Z,97305.14
2019-05-19T14:31:21.427Z,97295.75
2019-05-19T14:33:53.621Z,97287.48
2019-05-19T14:36:25.640Z,97277.61
2019-05-19T14:39:06.047Z,97274.85
2019-05-19T14:41:42.574Z,97273.12
2019-05-19T14:44:14.704Z,97269.45
2019-05-19T14:46:48.596Z,97277.37
2019-05-19T14:49:20.714Z,97273.84
2019-05-19T14:51:53.661Z,97269.90
2019-05-19T14:54:26.405Z,97267.86
2019-05-19T14:57:00.075Z,97274.07
2019-05-19T14:59:32.161Z,97284.49
2019-05-19T15:02:04.158Z,97276.70
2019-05-19T15:04:36.177Z,97272.97
2019-05-19T15:07:08.144Z,97265.36
2019-05-19T15:09:40.521Z,97259.63
2019-05-19T15:12:12.632Z,97269.27
2019-05-19T15:14:47.411Z,97273.84
2019-05-19T15:17:19.444Z,97267.06
2019-05-19T15:19:51.487Z,97267.88
2019-05-19T15:22:23.457Z,97269.93
2019-05-19T15:24:55.458Z,97269.98
2019-05-19T15:27:27.493Z,97275.66
2019-05-19T15:30:11.852Z,97273.22
2019-05-19T15:32:33.173Z,97282.92
2019-05-19T15:35:05.561Z,97297.05
2019-05-19T15:37:37.639Z,97299.45
2019-05-19T15:40:10.830Z,97303.96
2019-05-19T15:42:42.783Z,97309.77
2019-05-19T15:45:14.999Z,97314.91
2019-05-19T15:47:46.951Z,97303.48
2019-05-19T15:50:20.907Z,97303.81
2019-05-19T15:52:52.953Z,97303.92
2019-05-19T15:55:24.929Z,97299.38
2019-05-19T15:57:56.946Z,97300.94
2019-05-19T16:00:28.974Z,97300.64
2019-05-19T16:03:00.964Z,97295.36
2019-05-19T16:05:32.945Z,97292.53
2019-05-19T16:08:04.896Z,97289.16
2019-05-19T16:10:36.880Z,97286.84
2019-05-19T16:13:08.844Z,97283.45
2019-05-19T16:15:41.236Z,97276.70
2019-05-19T16:18:13.215Z,97279.97
2019-05-19T16:20:45.189Z,97275.11
2019-05-19T16:23:17.157Z,97280.44
2019-05-19T16:25:49.165Z,97276.28
2019-05-19T16:28:30.310Z,97278.39
2019-05-19T16:30:55.129Z,97275.06
2019-05-19T16:33:27.202Z,97273.55
2019-05-19T16:35:59.204Z,97272.50
2019-05-19T16:38:31.271Z,97268.34
2019-05-19T16:41:03.211Z,97269.56
2019-05-19T16:43:36.895Z,97270.08
2019-05-19T16:46:08.968Z,97273.76
2019-05-19T16:48:41.043Z,97272.87
2019-05-19T16:51:13.053Z,97275.20
2019-05-19T16:53:47.029Z,97273.64
2019-05-19T16:56:19.140Z,97275.59
2019-05-19T16:58:51.217Z,97281.80
2019-05-19T17:01:23.202Z,97278.60
2019-05-19T17:03:55.187Z,97283.78
2019-05-19T17:06:27.171Z,97280.91
2019-05-19T17:08:59.144Z,97276.05
2019-05-19T17:11:31.225Z,97281.03
2019-05-19T17:14:03.298Z,97281.67
2019-05-19T17:16:35.359Z,97276.30
2019-05-19T17:19:07.328Z,97274.05
2019-05-19T17:21:40.027Z,97270.95
2019-05-19T17:24:12.007Z,97263.88
2019-05-19T17:26:43.989Z,97261.61
2019-05-19T17:29:16.055Z,97267.79
2019-05-19T17:31:48.045Z,97265.73
2019-05-19T17:34:20.067Z,97265.84
2019-05-19T17:36:52.066Z,97263.44
2019-05-19T17:39:24.196Z,97268.27
2019-05-19T17:41:56.192Z,97273.02
2019-05-19T17:44:28.243Z,97275.48
2019-05-19T17:47:00.609Z,97277.22
2019-05-19T17:49:32.597Z,97267.91
2019-05-19T17:52:05.075Z,97271.38
2019-05-19T17:54:37.074Z,97270.60
2019-05-19T17:57:09.179Z,97267.72
2019-05-19T17:59:46.528Z,97263.22
2019-05-19T18:02:18.664Z,97273.95
2019-05-19T18:04:50.728Z,97271.51
2019-05-19T18:07:22.776Z,97281.14
2019-05-19T18:09:54.804Z,97281.22
2019-05-19T18:12:26.991Z,97276.63
2019-05-19T18:14:58.928Z,97277.93
2019-05-19T18:17:31.383Z,97276.39
2019-05-19T18:20:03.405Z,97276.81
2019-05-19T18:22:35.496Z,97270.34
2019-05-19T18:25:07.583Z,97276.94
2019-05-19T18:27:39.971Z,97270.78
2019-05-19T18:30:12.233Z,97268.48
2019-05-19T18:32:44.333Z,97277.96
2019-05-19T18:35:16.394Z,97274.42
2019-05-19T18:37:48.422Z,97263.95
2019-05-19T18:40:20.807Z,97261.92
2019-05-19T18:42:52.841Z,97267.02
2019-05-19T18:45:24.839Z,97265.68
2019-05-19T18:47:56.942Z,97262.22
2019-05-19T18:50:28.931Z,97274.13
2019-05-19T18:53:00.929Z,97279.07
2019-05-19T18:55:32.933Z,97269.95
2019-05-19T18:58:04.912Z,97273.55
2019-05-19T19:00:38.810Z,97272.72
2019-05-19T19:03:11.147Z,97269.95
2019-05-19T19:05:43.318Z,97264.73
2019-05-19T19:08:15.364Z,97268.48
2019-05-19T19:10:47.350Z,97270.24
2019-05-19T19:13:20.071Z,97278.69
2019-05-19T19:15:52.106Z,97279.24
2019-05-19T19:18:24.237Z,97282.33
2019-05-19T19:20:56.293Z,97277.67
2019-05-19T19:23:28.290Z,97273.63
2019-05-19T19:26:00.304Z,97272.58
2019-05-19T19:28:32.323Z,97268.97
2019-05-19T19:31:04.366Z,97261.41
2019-05-19T19:33:36.355Z,97259.85
2019-05-19T19:36:08.311Z,97258.55
2019-05-19T19:38:40.651Z,97259.79
2019-05-19T19:41:12.654Z,97260.48
2019-05-19T19:43:44.671Z,97255.74
2019-05-19T19:46:16.645Z,97253.35
2019-05-19T19:48:48.709Z,97258.95
2019-05-19T19:51:21.017Z,97255.59
2019-05-19T19:53:53.078Z,97264.99
2019-05-19T19:56:25.058Z,97262.60
2019-05-19T19:58:57.139Z,97260.64
2019-05-19T20:01:29.178Z,97270.39
2019-05-19T20:04:01.174Z,97270.31
2019-05-19T20:06:33.223Z,97271.14
2019-05-19T20:09:05.901Z,97273.37
2019-05-19T20:11:37.979Z,97265.88
2019-05-19T20:14:09.987Z,97265.16
2019-05-19T20:16:42.010Z,97261.42
2019-05-19T20:19:13.997Z,97250.59
2019-05-19T20:21:45.981Z,97247.33
2019-05-19T20:24:17.931Z,97233.38
2019-05-19T20:26:49.938Z,97226.94
2019-05-19T20:29:21.919Z,97232.56
2019-05-19T20:31:53.911Z,97226.63
2019-05-19T20:34:25.907Z,97227.38
2019-05-19T20:36:57.915Z,97220.98
2019-05-19T20:39:30.329Z,97229.25
2019-05-19T20:42:02.339Z,97239.71
2019-05-19T20:44:34.388Z,97243.94
2019-05-19T20:47:06.398Z,97244.69
2019-05-19T20:49:38.451Z,97247.77
2019-05-19T20:52:10.711Z,97246.60
2019-05-19T20:54:42.713Z,97243.27
2019-05-19T20:57:14.776Z,97233.81
2019-05-19T20:59:46.783Z,97234.28
2019-05-19T21:02:18.745Z,97234.79
2019-05-19T21:04:50.733Z,97244.05
2019-05-19T21:07:22.716Z,97241.41
2019-05-19T21:09:54.747Z,97238.22
2019-05-19T21:12:26.794Z,97231.20
2019-05-19T21:14:58.759Z,97233.52
2019-05-19T21:17:31.208Z,97237.52
2019-05-19T21:20:05.725Z,97235.52
2019-05-19T21:22:37.727Z,97234.18
2019-05-19T21:25:10.507Z,97232.48
2019-05-19T21:27:42.602Z,97233.96
2019-05-19T21:30:14.601Z,97235.20
2019-05-19T21:32:46.681Z,97232.55
2019-05-19T21:35:18.649Z,97230.84
2019-05-19T21:37:50.819Z,97226.02
2019-05-19T21:40:22.791Z,97228.81
2019-05-19T21:42:54.782Z,97232.45
2019-05-19T21:45:26.911Z,97233.79
2019-05-19T21:47:58.949Z,97232.22
2019-05-19T21:50:31.494Z,97238.30
2019-05-19T21:53:06.466Z,97237.33
2019-05-19T21:55:37.469Z,97235.40
2019-05-19T21:58:09.438Z,97245.48
2019-05-19T22:00:42.801Z,97247.08
2019-05-19T22:03:14.819Z,97252.41
2019-05-19T22:05:53.276Z,97250.58
2019-05-19T22:08:21.587Z,97245.48
2019-05-19T22:10:53.939Z,97238.43
2019-05-19T22:13:26.420Z,97236.22
2019-05-19T22:16:11.763Z,97233.65
2019-05-19T22:18:32.207Z,97228.44
2019-05-19T22:21:04.181Z,97223.58
2019-05-19T22:23:36.195Z,97222.36
2019-05-19T22:26:08.218Z,97226.00
2019-05-19T22:28:40.457Z,97220.06
2019-05-19T22:31:12.474Z,97224.77
2019-05-19T22:33:44.547Z,97212.88
2019-05-19T22:36:16.623Z,97203.22
2019-05-19T22:38:48.623Z,97197.80
2019-05-19T22:41:21.002Z,97194.80
2019-05-19T22:43:53.005Z,97193.00
2019-05-19T22:46:25.191Z,97185.27
2019-05-19T22:48:57.194Z,97178.59
2019-05-19T22:51:29.184Z,97181.13
2019-05-19T22:54:01.310Z,97185.38
2019-05-19T22:56:33.304Z,97175.80
2019-05-19T22:59:18.922Z,97167.42
2019-05-19T23:01:51.023Z,97164.52
2019-05-19T23:04:12.683Z,97170.09
2019-05-19T23:06:44.659Z,97162.69
2019-05-19T23:09:16.663Z,97160.13
2019-05-19T23:11:48.654Z,97164.16
2019-05-19T23:14:20.947Z,97156.42
2019-05-19T23:16:52.899Z,97152.92
2019-05-19T23:19:24.897Z,97150.75
2019-05-19T23:21:56.836Z,97154.98
2019-05-19T23:24:28.833Z,97153.91
2019-05-19T23:27:01.167Z,97151.37
2019-05-19T23:29:33.150Z,97143.00
2019-05-19T23:32:07.373Z,97144.45
2019-05-19T23:34:39.141Z,97136.48
2019-05-19T23:37:11.209Z,97137.10
2019-05-19T23:39:43.303Z,97124.36
2019-05-19T23:42:15.305Z,97124.62
2019-05-19T23:44:47.293Z,97133.20
2019-05-19T23:47:19.284Z,97139.39
2019-05-19T23:49:51.290Z,97134.66
2019-05-19T23:52:23.289Z,97133.08
2019-05-19T23:54:55.247Z,97143.00
2019-05-19T23:57:27.224Z,97142.03
2019-05-19T23:59:59.178Z,97138.53
